Flight Track Log - Related Links

Times and Time Zones

All times are in EDT time to prevent confusion due to time zone crossing. See the SWA1046 flight status page for this flight to view local times or setup timezone preferences in your user account.

Time Position Orientation Groundspeed Altitude Reporting Facility
EDT Latitude Longitude Course Direction KTS MPH feet Rate Location/Type
Thu 11:28:09 AM 28.4167 -81.3167 210° Southwest 160 184 800  Level Orlando TRACON
Thu 11:29:16 AM 28.3667 -81.3500 210° Southwest 221 254 3,200 2,173 Climbing Orlando TRACON
Thu 11:30:16 AM 28.3000 -81.3833 204° Southwest 285 328 5,400 2,394 Climbing Orlando TRACON
Thu 11:32:39 AM 28.3311 -81.6003 279° West 294 338 11,300 2,483 Climbing Jacksonville Center
Thu 11:33:39 AM 28.3489 -81.7133 280° West 335 386 13,800 2,700 Climbing Jacksonville Center
Thu 11:34:39 AM 28.3667 -81.8286 280° West 359 413 16,700 3,150 Climbing Jacksonville Center
Thu 11:35:39 AM 28.3822 -81.9511 278° West 380 437 20,100 2,950 Climbing Jacksonville Center
Thu 11:36:39 AM 28.3997 -82.0619 280° West 379 436 22,600 1,900 Climbing Jacksonville Center
Thu 11:37:39 AM 28.4172 -82.1844 279° West 379 436 23,900 1,650 Climbing Jacksonville Center
Thu 11:38:39 AM 28.4386 -82.3119 281° West 399 459 25,900 1,900 Climbing Jacksonville Center
Thu 11:39:39 AM 28.5081 -82.4153 307° West 405 466 27,700 1,850 Climbing Jacksonville Center
Thu 11:40:39 AM 28.6083 -82.4906 327° Northwest 415 478 29,600 2,000 Climbing Jacksonville Center
Thu 11:41:39 AM 28.6942 -82.5589 325° Northwest 415 478 31,700 2,000 Climbing Jacksonville Center
Thu 11:42:39 AM 28.7861 -82.6367 323° Northwest 415 478 33,600 2,300 Climbing Jacksonville Center
Thu 11:43:39 AM 28.8761 -82.7100 324° Northwest 410 472 36,300 2,050 Climbing Jacksonville Center
Thu 11:44:39 AM 28.9597 -82.7786 324° Northwest 395 455 37,700 850 Climbing Jacksonville Center
Thu 11:45:39 AM 29.0431 -82.8475 324° Northwest 383 441 38,000 150 Climbing Jacksonville Center
Thu 11:46:39 AM 29.1267 -82.9164 324° Northwest 378 435 38,000  Level Jacksonville Center
Thu 11:47:39 AM 29.2100 -82.9853 324° Northwest 378 435 38,000  Level Jacksonville Center
Thu 11:48:39 AM 29.2936 -83.0569 323° Northwest 378 435 38,000  Level Jacksonville Center
Thu 11:49:39 AM 29.3789 -83.1261 325° Northwest 378 435 38,000  Level Jacksonville Center
Thu 11:50:39 AM 29.4603 -83.1978 323° Northwest 378 435 38,000  Level Jacksonville Center
Thu 11:51:39 AM 29.5456 -83.2697 324° Northwest 375 432 38,000  Level Jacksonville Center
Thu 11:52:39 AM 29.6372 -83.3442 325° Northwest 370 426 38,000  Level Jacksonville Center
Thu 11:53:39 AM 29.7225 -83.4139 325° Northwest 370 426 38,000  Level Jacksonville Center
Thu 11:54:39 AM 29.8058 -83.4839 324° Northwest 370 426 38,000  Level Jacksonville Center
Thu 11:55:39 AM 29.8889 -83.5539 324° Northwest 365 420 38,000  Level Jacksonville Center
Thu 11:56:39 AM 29.9722 -83.6239 324° Northwest 365 420 38,000  Level Jacksonville Center
Thu 11:57:39 AM 30.0553 -83.6942 324° Northwest 365 420 38,000  Level Jacksonville Center
Thu 11:58:39 AM 30.1383 -83.7619 325° Northwest 365 420 38,000  Level Jacksonville Center
Thu 11:59:39 AM 30.2233 -83.8325 324° Northwest 365 420 38,000  Level Jacksonville Center
Thu 12:00:39 PM 30.3042 -83.9031 323° Northwest 365 420 38,000  Level Jacksonville Center
Thu 12:01:39 PM 30.3892 -83.9739 324° Northwest 365 420 38,000  Level Jacksonville Center
Thu 12:02:39 PM 30.4700 -84.0447 323° Northwest 365 420 38,000  Level Jacksonville Center
Thu 12:03:39 PM 30.5531 -84.1181 323° Northwest 365 420 38,000  Level Jacksonville Center
Thu 12:04:39 PM 30.6253 -84.1792 324° Northwest 358 412 38,000  Level Jacksonville Center
Thu 12:05:39 PM 30.7081 -84.2506 323° Northwest 364 419 38,000  Level Jacksonville Center
Thu 12:06:39 PM 30.7931 -84.3217 324° Northwest 370 426 38,000  Level Jacksonville Center
Thu 12:08:29 PM 30.9444 -84.4528 323° Northwest 368 423 38,000  Level Atlanta Center
Thu 12:09:29 PM 31.0256 -84.5258 322° Northwest 368 423 38,000  Level Atlanta Center
Thu 12:10:29 PM 31.1067 -84.5942 324° Northwest 368 423 38,000  Level Atlanta Center
Thu 12:11:29 PM 31.1919 -84.6700 323° Northwest 363 418 38,000  Level Atlanta Center
Thu 12:12:29 PM 31.2750 -84.7411 324° Northwest 363 418 38,000  Level Atlanta Center
Thu 12:13:29 PM 31.3664 -84.8219 323° Northwest 368 423 38,000  Level Atlanta Center
Thu 12:14:29 PM 31.4494 -84.8958 323° Northwest 368 423 38,000  Level Atlanta Center
Thu 12:15:29 PM 31.5344 -84.9694 324° Northwest 368 423 38,000  Level Atlanta Center
Thu 12:16:29 PM 31.6194 -85.0486 322° Northwest 374 430 38,000  Level Atlanta Center
Thu 12:17:29 PM 31.7064 -85.1203 325° Northwest 380 437 38,000  Level Atlanta Center
Thu 12:18:29 PM 31.7831 -85.1872 323° Northwest 385 443 38,000  Level Atlanta Center
Thu 12:19:29 PM 31.8719 -85.2642 324° Northwest 390 449 38,000  Level Atlanta Center
Thu 12:20:29 PM 31.9589 -85.3364 325° Northwest 390 449 38,000  Level Atlanta Center
Thu 12:21:29 PM 32.0417 -85.4133 322° Northwest 390 449 38,000  Level Atlanta Center
Thu 12:22:29 PM 32.1264 -85.4883 323° Northwest 390 449 38,000  Level Atlanta Center
Thu 12:23:29 PM 32.2089 -85.5633 322° Northwest 385 443 38,000  Level Atlanta Center
Thu 12:24:29 PM 32.2956 -85.6383 324° Northwest 391 450 38,000  Level Atlanta Center
Thu 12:25:29 PM 32.3803 -85.7161 322° Northwest 386 444 38,000  Level Atlanta Center
Thu 12:26:29 PM 32.4728 -85.8042 321° Northwest 386 444 38,000  Level Atlanta Center
Thu 12:27:29 PM 32.5594 -85.8750 325° Northwest 391 450 38,000  Level Atlanta Center
Thu 12:28:29 PM 32.6439 -85.9531 322° Northwest 386 444 38,000  Level Atlanta Center
Thu 12:29:29 PM 32.7242 -86.0264 322° Northwest 386 444 38,000  Level Atlanta Center
Thu 12:30:29 PM 32.8086 -86.1000 324° Northwest 386 444 38,000  Level Atlanta Center
Thu 12:31:29 PM 32.8886 -86.1761 321° Northwest 381 438 38,000  Level Atlanta Center
Thu 12:32:29 PM 32.9708 -86.2500 323° Northwest 381 438 38,000  Level Atlanta Center
Thu 12:33:29 PM 33.0508 -86.3214 323° Northwest 371 427 38,000  Level Atlanta Center
Thu 12:34:29 PM 33.1308 -86.3978 321° Northwest 366 421 38,000  Level Atlanta Center
Thu 12:35:29 PM 33.2086 -86.4769 320° Northwest 366 421 38,000  Level Atlanta Center
Thu 12:36:29 PM 33.2908 -86.5464 325° Northwest 366 421 38,000  Level Atlanta Center
Thu 12:37:29 PM 33.3603 -86.6131 321° Northwest 361 415 38,000  Level Atlanta Center
Thu 12:38:29 PM 33.4422 -86.6875 323° Northwest 361 415 38,000  Level Atlanta Center
Thu 12:39:29 PM 33.5242 -86.7625 323° Northwest 361 415 38,000  Level Atlanta Center
Thu 12:40:29 PM 33.6039 -86.8372 322° Northwest 361 415 38,000  Level Atlanta Center
Thu 12:41:29 PM 33.6878 -86.9122 323° Northwest 366 421 38,000  Level Atlanta Center
Thu 12:42:29 PM 33.7736 -86.9803 327° Northwest 366 421 38,000  Level Atlanta Center
Thu 12:43:29 PM 33.8597 -87.0483 327° Northwest 366 421 38,000  Level Atlanta Center
Thu 12:44:45 PM 33.9789 -87.1483 325° Northwest 406 467 38,000  Level Memphis Center
Thu 12:45:45 PM 34.0661 -87.2178 327° Northwest 389 448 38,000  Level Memphis Center
Thu 12:46:45 PM 34.1514 -87.2825 328° Northwest 371 427 38,000  Level Memphis Center
Thu 12:47:45 PM 34.2278 -87.3425 327° Northwest 371 427 38,000  Level Memphis Center
Thu 12:48:45 PM 34.3172 -87.4100 328° Northwest 376 433 38,000  Level Memphis Center
Thu 12:49:45 PM 34.3981 -87.4775 325° Northwest 376 433 38,000  Level Memphis Center
Thu 12:50:45 PM 34.4872 -87.5450 328° Northwest 376 433 38,000  Level Memphis Center
Thu 12:51:45 PM 34.5700 -87.6131 326° Northwest 370 426 38,000  Level Memphis Center
Thu 12:52:45 PM 34.6531 -87.6811 326° Northwest 363 418 38,000  Level Memphis Center
Thu 12:53:45 PM 34.7358 -87.7467 327° Northwest 358 412 38,000  Level Memphis Center
Thu 12:54:45 PM 34.8292 -87.8222 326° Northwest 360 414 38,000  Level Memphis Center
Thu 12:55:45 PM 34.9097 -87.8856 327° Northwest 360 414 38,000  Level Memphis Center
Thu 12:56:45 PM 34.9903 -87.9517 326° Northwest 360 414 38,000  Level Memphis Center
Thu 12:57:45 PM 35.0708 -88.0178 326° Northwest 360 414 38,000  Level Memphis Center
Thu 12:58:45 PM 35.1469 -88.0842 325° Northwest 360 414 38,000  Level Memphis Center
Thu 12:59:45 PM 35.2297 -88.1506 327° Northwest 360 414 38,000  Level Memphis Center
Thu 01:00:45 PM 35.3100 -88.2172 326° Northwest 360 414 38,000 -100 Level Memphis Center
Thu 01:01:45 PM 35.3925 -88.2864 326° Northwest 360 414 37,800 -600 Descending Memphis Center
Thu 01:02:45 PM 35.4833 -88.3556 328° Northwest 360 414 36,800 -900 Descending Memphis Center
Thu 01:03:45 PM 35.5658 -88.4250 326° Northwest 360 414 36,000 -400 Descending Memphis Center
Thu 01:04:45 PM 35.6503 -88.4944 326° Northwest 360 414 36,000  Level Memphis Center
Thu 01:05:45 PM 35.7328 -88.5642 326° Northwest 360 414 36,000  Level Memphis Center
Thu 01:06:45 PM 35.8192 -88.6367 326° Northwest 365 420 36,000  Level Memphis Center
Thu 01:07:45 PM 35.9036 -88.7092 325° Northwest 365 420 36,000 -300 Level Memphis Center
Thu 01:08:45 PM 35.9922 -88.7819 326° Northwest 365 420 35,400 -500 Descending Memphis Center
Thu 01:09:45 PM 36.0744 -88.8522 325° Northwest 365 420 35,000 -200 Descending Memphis Center
Thu 01:10:45 PM 36.1564 -88.9225 325° Northwest 365 420 35,000  Level Memphis Center
Thu 01:11:46 PM 36.2428 -88.9931 327° Northwest 365 420 35,000 -250 Level Memphis Center
Thu 01:12:45 PM 36.3311 -89.0586 329° Northwest 365 420 34,500 -756 Descending Memphis Center
Thu 01:13:45 PM 36.4211 -89.1061 337° Northwest 372 428 33,500 -750 Descending Memphis Center
Thu 01:14:45 PM 36.5239 -89.1639 336° Northwest 383 441 33,000 -250 Descending Memphis Center
Thu 01:15:45 PM 36.6225 -89.2219 335° Northwest 395 455 33,000  Level Memphis Center
Thu 01:16:45 PM 36.7189 -89.2800 334° Northwest 390 449 33,000 -500 Level Memphis Center
Thu 01:17:45 PM 36.8172 -89.3358 336° Northwest 390 449 32,000 -950 Descending Memphis Center
Thu 01:18:45 PM 36.9156 -89.3942 335° Northwest 390 449 31,100 -984 Descending Memphis Center
Thu 01:20:48 PM 37.1056 -89.5011 336° Northwest 377 434 29,000 -1,572 Descending Kansas City Center
Thu 01:21:52 PM 37.2153 -89.5667 335° Northwest 366 421 26,200 -1,440 Descending Kansas City Center
Thu 01:22:53 PM 37.3064 -89.6161 337° Northwest 358 412 26,000 -97 Descending Kansas City Center
Thu 01:23:56 PM 37.3992 -89.6658 337° Northwest 361 415 26,000  Level Kansas City Center
Thu 01:24:57 PM 37.4914 -89.7164 336° Northwest 361 415 26,000 -672 Level Kansas City Center
Thu 01:26:01 PM 37.5883 -89.7711 336° Northwest 354 407 24,600 -1,632 Descending Kansas City Center
Thu 01:27:02 PM 37.6742 -89.8183 336° Northwest 340 391 22,600 -1,935 Descending Kansas City Center
Thu 01:28:05 PM 37.7564 -89.8636 336° Northwest 326 375 20,600 -1,872 Descending Kansas City Center
Thu 01:29:07 PM 37.8367 -89.9078 337° Northwest 318 366 18,700 -1,663 Descending Kansas City Center
Thu 01:29:46 PM 37.8975 -89.8833 18° North 312 359 17,800 -1,729 Descending FAA TRACON SMA TRACON (SMA)
Thu 01:30:06 PM 37.9222 -89.8986 334° Northwest 317 365 17,000 -2,550 Descending FAA TRACON SMA TRACON (SMA)
Thu 01:30:26 PM 37.9472 -89.9136 335° Northwest 323 372 16,100 -2,488 Descending FAA TRACON SMA TRACON (SMA)
Thu 01:30:47 PM 37.9800 -89.9294 339° North 328 377 15,300 -2,100 Descending FAA TRACON SMA TRACON (SMA)
Thu 01:31:06 PM 38.0053 -89.9428 337° Northwest 322 371 14,700 -1,692 Descending FAA TRACON SMA TRACON (SMA)
Thu 01:31:26 PM 38.0292 -89.9589 332° Northwest 314 361 14,200 -1,800 Descending FAA TRACON SMA TRACON (SMA)
Thu 01:31:46 PM 38.0594 -89.9753 337° Northwest 307 353 13,500 -1,950 Descending FAA TRACON SMA TRACON (SMA)
Thu 01:32:06 PM 38.0833 -89.9878 338° Northwest 302 348 12,900 -1,800 Descending FAA TRACON SMA TRACON (SMA)
Thu 01:32:26 PM 38.1056 -90.0028 332° Northwest 298 343 12,300 -1,650 Descending FAA TRACON SMA TRACON (SMA)
Thu 01:32:46 PM 38.1297 -90.0125 342° North 296 341 11,800 -1,800 Descending FAA TRACON SMA TRACON (SMA)
Thu 01:33:06 PM 38.1622 -90.0153 356° North 298 343 11,100 -1,650 Descending FAA TRACON SMA TRACON (SMA)
Thu 01:33:26 PM 38.1869 -90.0186 354° North 295 339 10,700 -1,171 Descending FAA TRACON SMA TRACON (SMA)
Thu 01:33:47 PM 38.2172 -90.0222 355° North 288 331 10,300 -900 Descending FAA TRACON SMA TRACON (SMA)
Thu 01:34:06 PM 38.2414 -90.0247 355° North 282 325 10,100 -615 Descending FAA TRACON SMA TRACON (SMA)
Thu 01:34:26 PM 38.2644 -90.0275 355° North 277 319 9,900 -300 Descending FAA TRACON SMA TRACON (SMA)
Thu 01:34:46 PM 38.2933 -90.0294 357° North 272 313 9,900 -300 Level FAA TRACON SMA TRACON (SMA)
Thu 01:35:06 PM 38.3150 -90.0322 354° North 261 300 9,700 -900 Descending FAA TRACON SMA TRACON (SMA)
Thu 01:35:26 PM 38.3364 -90.0358 352° North 253 291 9,300 -1,350 Descending FAA TRACON SMA TRACON (SMA)
Thu 01:35:46 PM 38.3578 -90.0386 354° North 251 289 8,800 -1,650 Descending FAA TRACON SMA TRACON (SMA)
Thu 01:36:06 PM 38.3850 -90.0411 356° North 253 291 8,200 -1,350 Descending FAA TRACON SMA TRACON (SMA)
Thu 01:36:26 PM 38.4061 -90.0433 355° North 252 290 7,900 -450 Descending FAA TRACON SMA TRACON (SMA)
Thu 01:36:46 PM 38.4319 -90.0469 354° North 246 283 7,900  Level FAA TRACON SMA TRACON (SMA)
Thu 01:37:06 PM 38.4533 -90.0478 358° North 244 281 7,900 -293 Level FAA TRACON SMA TRACON (SMA)
Thu 01:37:27 PM 38.4747 -90.0444 North 254 292 7,700 -1,500 Descending FAA TRACON SMA TRACON (SMA)
Thu 01:37:46 PM 38.4964 -90.0592 332° Northwest 245 282 6,900 -2,308 Descending FAA TRACON SMA TRACON (SMA)
Thu 01:38:06 PM 38.5119 -90.0758 320° Northwest 235 270 6,200 -1,950 Descending FAA TRACON SMA TRACON (SMA)
Thu 01:38:26 PM 38.5308 -90.0883 333° Northwest 244 281 5,600 -1,400 Descending FAA TRACON SMA TRACON (SMA)
Thu 01:39:06 PM 38.5708 -90.1181 330° Northwest 239 275 4,800 -1,377 Descending FAA TRACON SMA TRACON (SMA)
Thu 01:39:27 PM 38.5892 -90.1311 331° Northwest 244 281 4,200 -1,800 Descending FAA TRACON SMA TRACON (SMA)
Thu 01:39:46 PM 38.6122 -90.1481 330° Northwest 249 287 3,600 -1,385 Descending FAA TRACON SMA TRACON (SMA)
Thu 01:40:06 PM 38.6311 -90.1617 331° Northwest 252 290 3,300 -750 Descending FAA TRACON SMA TRACON (SMA)
Thu 01:40:26 PM 38.6489 -90.1747 330° Northwest 245 282 3,100 -150 Descending FAA TRACON SMA TRACON (SMA)
Thu 01:40:46 PM 38.6694 -90.1894 331° Northwest 224 258 3,200 146 Climbing FAA TRACON SMA TRACON (SMA)
Thu 01:41:07 PM 38.6836 -90.1978 335° Northwest 190 219 3,200  Level FAA TRACON SMA TRACON (SMA)
Thu 01:41:26 PM 38.6931 -90.2083 319° Northwest 163 188 3,200 -1,385 Level FAA TRACON SMA TRACON (SMA)
Thu 01:41:46 PM 38.6967 -90.2272 284° West 146 168 2,300 -2,100 Descending FAA TRACON SMA TRACON (SMA)
Thu 01:42:06 PM 38.7042 -90.2392 309° West 148 170 1,800 -1,463 Descending FAA TRACON SMA TRACON (SMA)
Thu 01:42:27 PM 38.7122 -90.2503 313° West 141 162 1,300 -1,171 Descending FAA TRACON SMA TRACON (SMA)
Thu 01:42:47 PM 38.7194 -90.2642 304° West 126 145 1,000 -769 Descending FAA TRACON SMA TRACON (SMA)
Thu 01:43:06 PM 38.7253 -90.2761 302° West 125 144 800 -615 Descending FAA TRACON SMA TRACON (SMA)
Thu 01:43:26 PM 38.7308 -90.2872 303° West 123 142 600 -600 Descending FAA TRACON SMA TRACON (SMA)
Thu 01:45:00 PM 38.7487 -90.3700 322° Northwest  Level Estimated

Login

Don't have an account? Register now (free) for customized features, flight alerts, and more!